Cresco, PA (18326)

4:48 PM EST on February 27, 2015 (GMT -0500)
Dogwood Ln | Change Station
CLOSE
Current Station
Personal Weather Station
Location: Canadensis, PA
Elevation: 1300 ft
Nearby Weather Stations

Elev 1300 ft 41.17 °N, 75.19 °W | Updated 22 seconds ago

Clear
Clear
21.2 °F
Feels Like 21 °F
N
1.6
Wind Variable Wind from NW
Gusts 2.3 mph

Today
High -- | Low -- °F
--% Chance of Precip.
Yesterday
High -- | Low -- °F
Precip. -- in
6:38 AM 5:49 PM
Waxing Gibbous, 72% visible
Pressure 30.44 in
Visibility 10.0 miles
Clouds Clear
Windchill 21 °F
Dew Point -9 °F
Humidity 25%
Rainfall 0.00 in
Snow Depth Not available.
UV 1 out of 12
Pollen .50 out of 12
Air Quality Not available.
Flu Activity Not available.
METAR KAVP 272054Z 34009KT 10SM CLR M06/M18 A3040 RMK AO2 SLP308 T10561178 53010

More Conditions Fewer Conditions

Pressure 30.44 in
Visibility 10.0 miles
Clouds Clear
Windchill 21 °F
Dew Point -9 °F
Humidity 25%
Rainfall 0.00 in
Snow Depth Not available.
UV 1 out of 12
Pollen .50 out of 12
Air Quality Not available.
Flu Activity Not available.
METAR KAVP 272054Z 34009KT 10SM CLR M06/M18 A3040 RMK AO2 SLP308 T10561178 53010

More Conditions Fewer Conditions

10-Day Weather Forecast

Almanac

Astronomy

Feb. 27, 2015 Rise Set
Actual Time
Civil Twilight
Nautical Twilight
Astronomical Twilight
Moon
Length of Visible Light
Length of Day
Tomorrow will be .
, % of the Moon is Illuminated

Today's Extremes

State Highs State Lows

Community

WunderPhotos

Upload Photos

1,800,844 photos uploaded!

WunderBlogs® & News

Nearby

Air Quality

  Air Quality AQ Index Pollutant
Not available.

Snow Depth

Station Depth Elevation

Earthquake Activity

City Distance Mag. Time & Date
Minimum magnitude displayed is 2.5.

Coastal Water Temperatures

Place Temperature

Nearby Weather Stations